Station Historical Data
Daily Summary for June 6, 2017 Units:  English    Metric   Both
Next Day »
Daily Weekly Monthly Yearly Custom
  High: Low: Average:
Temperature: 80.9 °F 60.6 °F 69.9 °F
Dew Point: 49.6 °F 39.4 °F 43.7 °F
Humidity: 54% 24% 40%
Wind Speed: 16.0mph 0.0mph 2.5mph
Wind Gust: 17.0mph - -
Wind- - SE
Pressure: 29.90 in 29.86 in -
Precipitation: 0.00 in    
Historical Graphs
 
 
Tabular Data for June 6, 2017
Time Temperature Dew Point Pressure Wind Wind Speed Wind Gust Humidity Rainfall Rate (Hourly) solar Conditions
00:00 64.7 °F 41.7 °F 29.89 in ESE 6.0 mph 13.0 mph 43% 0.00 in 0.00 W/m2
00:05 64.6 °F 42.2 °F 29.89 in ESE 4.0 mph 11.0 mph 44% 0.00 in 0.00 W/m2
00:10 64.5 °F 42.1 °F 29.89 in East 6.0 mph 9.0 mph 44% 0.00 in 0.00 W/m2
00:15 64.5 °F 42.1 °F 29.89 in East 2.0 mph 9.0 mph 44% 0.00 in 0.00 W/m2
00:21 64.4 °F 41.4 °F 29.89 in East 1.0 mph 11.0 mph 43% 0.00 in 0.00 W/m2
00:26 64.3 °F 41.9 °F 29.89 in East 12.0 mph 12.0 mph 44% 0.00 in 0.00 W/m2
00:31 64.3 °F 41.9 °F 29.89 in East 6.0 mph 6.0 mph 44% 0.00 in 0.00 W/m2
00:36 64.2 °F 41.8 °F 29.89 in East 4.0 mph 8.0 mph 44% 0.00 in 0.00 W/m2
00:41 64.2 °F 42.4 °F 29.89 in East 1.0 mph 4.0 mph 45% 0.00 in 0.00 W/m2
00:46 64.2 °F 41.8 °F 29.89 in East 5.0 mph 6.0 mph 44% 0.00 in 0.00 W/m2
00:51 64.1 °F 41.8 °F 29.89 in East 4.0 mph 6.0 mph 44% 0.00 in 0.00 W/m2
00:56 64.1 °F 41.8 °F 29.89 in East 2.0 mph 4.0 mph 44% 0.00 in 0.00 W/m2
01:01 64.0 °F 41.7 °F 29.89 in East 4.0 mph 8.0 mph 44% 0.00 in 0.00 W/m2
01:06 64.0 °F 41.7 °F 29.89 in East 13.0 mph 13.0 mph 44% 0.00 in 0.00 W/m2
01:11 63.9 °F 42.2 °F 29.89 in ESE 4.0 mph 4.0 mph 45% 0.00 in 0.00 W/m2
01:16 63.9 °F 42.2 °F 29.89 in East 6.0 mph 7.0 mph 45% 0.00 in 0.00 W/m2
01:21 63.8 °F 41.5 °F 29.89 in East 9.0 mph 9.0 mph 44% 0.00 in 0.00 W/m2
01:26 63.8 °F 41.5 °F 29.89 in ESE 5.0 mph 8.0 mph 44% 0.00 in 0.00 W/m2
01:31 63.7 °F 41.4 °F 29.89 in ESE 4.0 mph 6.0 mph 44% 0.00 in 0.00 W/m2
01:36 63.7 °F 42.0 °F 29.89 in ESE 6.0 mph 6.0 mph 45% 0.00 in 0.00 W/m2
01:41 63.6 °F 41.9 °F 29.89 in East 1.0 mph 5.0 mph 45% 0.00 in 0.00 W/m2
01:46 63.6 °F 41.3 °F 29.89 in ESE 2.0 mph 8.0 mph 44% 0.00 in 0.00 W/m2
01:51 63.6 °F 41.3 °F 29.89 in East 9.0 mph 11.0 mph 44% 0.00 in 0.00 W/m2
01:56 63.5 °F 41.8 °F 29.89 in East 8.0 mph 13.0 mph 45% 0.00 in 0.00 W/m2
02:01 63.5 °F 41.2 °F 29.89 in ESE 5.0 mph 13.0 mph 44% 0.00 in 0.00 W/m2
02:06 63.5 °F 41.2 °F 29.89 in East 2.0 mph 11.0 mph 44% 0.00 in 0.00 W/m2
02:11 63.4 °F 41.1 °F 29.89 in ESE 4.0 mph 12.0 mph 44% 0.00 in 0.00 W/m2
02:16 63.4 °F 41.1 °F 29.89 in ESE 6.0 mph 11.0 mph 44% 0.00 in 0.00 W/m2
02:21 63.4 °F 41.1 °F 29.89 in ESE 4.0 mph 6.0 mph 44% 0.00 in 0.00 W/m2
02:26 63.4 °F 41.1 °F 29.88 in Calm   11.0 mph 44% 0.00 in 0.00 W/m2
02:31 63.3 °F 40.5 °F 29.88 in ESE 8.0 mph 11.0 mph 43% 0.00 in 0.00 W/m2
02:36 63.3 °F 41.0 °F 29.88 in East 7.0 mph 8.0 mph 44% 0.00 in 0.00 W/m2
02:41 63.2 °F 41.0 °F 29.88 in East 7.0 mph 8.0 mph 44% 0.00 in 0.00 W/m2
02:46 63.2 °F 41.0 °F 29.88 in East 7.0 mph 11.0 mph 44% 0.00 in 0.00 W/m2
02:50 63.2 °F 41.0 °F 29.88 in ESE 2.0 mph 14.0 mph 44% 0.00 in 0.00 W/m2
02:55 63.2 °F 41.5 °F 29.88 in ESE 2.0 mph 14.0 mph 45% 0.00 in 0.00 W/m2
03:00 63.1 °F 41.4 °F 29.88 in East 4.0 mph 16.0 mph 45% 0.00 in 0.00 W/m2
03:05 63.0 °F 41.3 °F 29.88 in ESE 5.0 mph 15.0 mph 45% 0.00 in 0.00 W/m2
03:06 63.0 °F 41.3 °F 29.88 in East 1.0 mph 2.0 mph 45% 0.00 in 0.00 W/m2
03:11 62.9 °F 41.3 °F 29.87 in ESE 7.0 mph 7.0 mph 45% 0.00 in 0.00 W/m2
03:16 62.8 °F 41.2 °F 29.87 in Calm   4.0 mph 45% 0.00 in 0.00 W/m2
03:17 62.8 °F 41.2 °F 29.87 in East 4.0 mph 12.0 mph 45% 0.00 in 0.00 W/m2
03:22 62.7 °F 41.1 °F 29.87 in ESE 6.0 mph 13.0 mph 45% 0.00 in 0.00 W/m2
03:27 62.7 °F 41.6 °F 29.87 in East 6.0 mph 14.0 mph 46% 0.00 in 0.00 W/m2
03:32 62.6 °F 41.0 °F 29.87 in ESE 4.0 mph 12.0 mph 45% 0.00 in 0.00 W/m2
03:37 62.5 °F 40.9 °F 29.87 in East 2.0 mph 11.0 mph 45% 0.00 in 0.00 W/m2
03:42 62.5 °F 40.9 °F 29.88 in ESE 5.0 mph 8.0 mph 45% 0.00 in 0.00 W/m2
03:47 62.5 °F 40.9 °F 29.88 in East 2.0 mph 9.0 mph 45% 0.00 in 0.00 W/m2
03:52 62.4 °F 40.8 °F 29.88 in ESE 5.0 mph 9.0 mph 45% 0.00 in 0.00 W/m2
03:57 62.3 °F 40.7 °F 29.88 in ESE 2.0 mph 8.0 mph 45% 0.00 in 0.00 W/m2
04:02 62.3 °F 41.3 °F 29.88 in ESE 6.0 mph 11.0 mph 46% 0.00 in 0.00 W/m2
04:07 62.2 °F 40.6 °F 29.88 in East 11.0 mph 11.0 mph 45% 0.00 in 0.00 W/m2
04:12 62.2 °F 41.2 °F 29.88 in ESE 6.0 mph 9.0 mph 46% 0.00 in 0.00 W/m2
04:17 62.1 °F 40.5 °F 29.88 in Calm   9.0 mph 45% 0.00 in 0.00 W/m2
04:22 62.0 °F 41.6 °F 29.88 in ESE 2.0 mph 9.0 mph 47% 0.00 in 0.00 W/m2
04:27 61.9 °F 40.9 °F 29.88 in ESE 1.0 mph 11.0 mph 46% 0.00 in 0.00 W/m2
04:32 61.8 °F 40.8 °F 29.88 in East 2.0 mph 14.0 mph 46% 0.00 in 0.00 W/m2
04:37 61.7 °F 40.7 °F 29.88 in East 4.0 mph 11.0 mph 46% 0.00 in 0.00 W/m2
04:42 61.6 °F 40.1 °F 29.88 in ESE 1.0 mph 12.0 mph 45% 0.00 in 0.00 W/m2
04:47 61.5 °F 41.1 °F 29.88 in East 4.0 mph 9.0 mph 47% 0.00 in 0.00 W/m2
04:52 61.4 °F 40.5 °F 29.88 in Calm   11.0 mph 46% 0.00 in 0.00 W/m2
04:57 61.3 °F 40.4 °F 29.88 in East 7.0 mph 11.0 mph 46% 0.00 in 0.00 W/m2
05:02 61.3 °F 40.9 °F 29.88 in ESE 4.0 mph 9.0 mph 47% 0.00 in 0.00 W/m2
05:07 61.2 °F 40.8 °F 29.88 in East 7.0 mph 12.0 mph 47% 0.00 in 0.00 W/m2
05:13 61.1 °F 40.2 °F 29.88 in East 16.0 mph 16.0 mph 46% 0.00 in 0.00 W/m2
05:18 61.1 °F 40.2 °F 29.88 in Calm   12.0 mph 46% 0.00 in 0.00 W/m2
05:19 61.1 °F 40.2 °F 29.88 in East 2.0 mph 13.0 mph 46% 0.00 in 0.00 W/m2
05:24 61.0 °F 39.5 °F 29.88 in ESE 7.0 mph 11.0 mph 45% 0.00 in 0.00 W/m2
05:29 61.0 °F 40.1 °F 29.89 in ESE 4.0 mph 13.0 mph 46% 0.00 in 0.00 W/m2
05:34 61.0 °F 40.1 °F 29.89 in ESE 2.0 mph 12.0 mph 46% 0.00 in 5.00 W/m2
05:39 61.0 °F 40.1 °F 29.89 in ESE 4.0 mph 11.0 mph 46% 0.00 in 7.00 W/m2
05:44 61.0 °F 40.1 °F 29.89 in ESE 6.0 mph 11.0 mph 46% 0.00 in 9.00 W/m2
05:49 61.0 °F 40.1 °F 29.89 in Calm   12.0 mph 46% 0.00 in 11.00 W/m2
05:54 60.9 °F 39.4 °F 29.89 in East 8.0 mph 11.0 mph 45% 0.00 in 12.00 W/m2
05:59 61.0 °F 40.1 °F 29.89 in ESE 5.0 mph 9.0 mph 46% 0.00 in 16.00 W/m2
06:04 60.9 °F 40.0 °F 29.89 in ESE 7.0 mph 10.0 mph 46% 0.00 in 18.00 W/m2
06:10 60.9 °F 40.0 °F 29.89 in East 7.0 mph 12.0 mph 46% 0.00 in 19.00 W/m2
06:15 60.9 °F 40.0 °F 29.89 in ESE 8.0 mph 12.0 mph 46% 0.00 in 32.00 W/m2
06:16 60.9 °F 40.0 °F 29.89 in ESE 1.0 mph 6.0 mph 46% 0.00 in 35.00 W/m2
06:21 60.9 °F 40.0 °F 29.89 in East 7.0 mph 8.0 mph 46% 0.00 in 47.00 W/m2
06:26 60.8 °F 39.9 °F 29.89 in ESE 8.0 mph 15.0 mph 46% 0.00 in 60.00 W/m2
06:31 60.7 °F 40.4 °F 29.89 in ESE 2.0 mph 13.0 mph 47% 0.00 in 74.00 W/m2
06:36 60.7 °F 39.8 °F 29.89 in ESE 1.0 mph 7.0 mph 46% 0.00 in 90.00 W/m2
06:41 60.7 °F 40.9 °F 29.89 in East 6.0 mph 12.0 mph 48% 0.00 in 104.00 W/m2
06:46 60.7 °F 40.9 °F 29.90 in ESE 6.0 mph 9.0 mph 48% 0.00 in 121.00 W/m2
06:51 60.6 °F 40.8 °F 29.89 in ESE 8.0 mph 15.0 mph 48% 0.00 in 139.00 W/m2
06:56 60.6 °F 40.8 °F 29.90 in ESE 7.0 mph 7.0 mph 48% 0.00 in 160.00 W/m2
07:01 60.7 °F 40.9 °F 29.90 in East 2.0 mph 7.0 mph 48% 0.00 in 172.00 W/m2
07:06 60.7 °F 41.5 °F 29.89 in ESE 2.0 mph 9.0 mph 49% 0.00 in 199.00 W/m2
07:11 60.8 °F 41.5 °F 29.89 in East 1.0 mph 12.0 mph 49% 0.00 in 218.00 W/m2
07:16 60.9 °F 41.6 °F 29.89 in East 4.0 mph 13.0 mph 49% 0.00 in 236.00 W/m2
07:21 61.0 °F 41.7 °F 29.89 in East 5.0 mph 13.0 mph 49% 0.00 in 260.00 W/m2
07:26 61.1 °F 41.8 °F 29.89 in ESE 6.0 mph 14.0 mph 49% 0.00 in 279.00 W/m2
07:31 61.2 °F 42.4 °F 29.89 in East 13.0 mph 13.0 mph 50% 0.00 in 295.00 W/m2
07:36 61.3 °F 42.5 °F 29.89 in East 1.0 mph 9.0 mph 50% 0.00 in 313.00 W/m2
07:41 61.4 °F 43.1 °F 29.89 in ESE 6.0 mph 17.0 mph 51% 0.00 in 327.00 W/m2
07:46 61.6 °F 43.3 °F 29.89 in Calm   5.0 mph 51% 0.00 in 346.00 W/m2
07:51 61.8 °F 44.0 °F 29.89 in East 1.0 mph 5.0 mph 52% 0.00 in 364.00 W/m2
07:57 61.9 °F 44.1 °F 29.89 in East 1.0 mph 4.0 mph 52% 0.00 in 380.00 W/m2
08:02 62.2 °F 44.4 °F 29.89 in Calm   8.0 mph 52% 0.00 in 397.00 W/m2
08:07 62.3 °F 44.5 °F 29.89 in East 6.0 mph 7.0 mph 52% 0.00 in 413.00 W/m2
08:12 62.6 °F 45.2 °F 29.89 in ESE 1.0 mph 4.0 mph 53% 0.00 in 427.00 W/m2
08:17 62.8 °F 44.9 °F 29.89 in Calm   8.0 mph 52% 0.00 in 445.00 W/m2
08:18 62.9 °F 45.0 °F 29.89 in East 4.0 mph 8.0 mph 52% 0.00 in 448.00 W/m2
08:23 63.2 °F 45.3 °F 29.89 in East 7.0 mph 8.0 mph 52% 0.00 in 462.00 W/m2
08:28 63.4 °F 46.0 °F 29.89 in ESE 4.0 mph 7.0 mph 53% 0.00 in 483.00 W/m2
08:33 63.7 °F 46.8 °F 29.89 in Calm   9.0 mph 54% 0.00 in 501.00 W/m2
08:38 64.0 °F 46.5 °F 29.89 in Calm   6.0 mph 53% 0.00 in 506.00 W/m2
08:43 64.3 °F 46.8 °F 29.89 in East 2.0 mph 6.0 mph 53% 0.00 in 524.00 W/m2
08:48 64.6 °F 47.1 °F 29.89 in Calm   7.0 mph 53% 0.00 in 541.00 W/m2
08:53 64.9 °F 46.9 °F 29.89 in East 2.0 mph 6.0 mph 52% 0.00 in 557.00 W/m2
08:58 65.2 °F 47.7 °F 29.89 in East 1.0 mph 5.0 mph 53% 0.00 in 575.00 W/m2
09:03 65.7 °F 48.6 °F 29.89 in Calm   1.0 mph 54% 0.00 in 589.00 W/m2
09:08 66.1 °F 49.0 °F 29.89 in Calm   6.0 mph 54% 0.00 in 605.00 W/m2
09:13 66.5 °F 49.4 °F 29.89 in East 2.0 mph 2.0 mph 54% 0.00 in 621.00 W/m2
09:18 66.8 °F 49.6 °F 29.89 in Calm     54% 0.00 in 635.00 W/m2
09:23 67.1 °F 48.9 °F 29.89 in Calm     52% 0.00 in 649.00 W/m2
09:28 67.3 °F 49.1 °F 29.89 in Calm     52% 0.00 in 663.00 W/m2
09:33 67.5 °F 46.6 °F 29.89 in Calm     47% 0.00 in 675.00 W/m2
09:38 67.8 °F 46.3 °F 29.89 in Calm     46% 0.00 in 689.00 W/m2
09:43 68.1 °F 46.0 °F 29.89 in Calm     45% 0.00 in 703.00 W/m2
09:48 68.5 °F 44.5 °F 29.89 in Calm     42% 0.00 in 717.00 W/m2
09:53 69.0 °F 47.4 °F 29.89 in Calm     46% 0.00 in 729.00 W/m2
09:58 69.4 °F 47.2 °F 29.89 in Calm     45% 0.00 in 740.00 W/m2
10:03 69.6 °F 43.6 °F 29.89 in Calm   2.0 mph 39% 0.00 in 752.00 W/m2
10:08 70.0 °F 44.6 °F 29.89 in Calm   2.0 mph 40% 0.00 in 766.00 W/m2
10:13 70.5 °F 46.3 °F 29.89 in Calm   1.0 mph 42% 0.00 in 779.00 W/m2
10:18 71.0 °F 45.5 °F 29.89 in Calm   6.0 mph 40% 0.00 in 770.00 W/m2
10:23 71.5 °F 44.6 °F 29.89 in Calm   4.0 mph 38% 0.00 in 807.00 W/m2
10:28 72.0 °F 45.0 °F 29.89 in Calm   4.0 mph 38% 0.00 in 816.00 W/m2
10:33 72.5 °F 42.6 °F 29.89 in Calm   3.0 mph 34% 0.00 in 824.00 W/m2
10:38 72.9 °F 42.1 °F 29.90 in Calm   4.0 mph 33% 0.00 in 830.00 W/m2
10:43 73.3 °F 44.8 °F 29.90 in WSW 1.0 mph 4.0 mph 36% 0.00 in 840.00 W/m2
10:48 73.9 °F 43.8 °F 29.90 in Calm   5.0 mph 34% 0.00 in 851.00 W/m2
10:53 74.2 °F 41.7 °F 29.90 in Calm   4.0 mph 31% 0.00 in 860.00 W/m2
10:55 74.3 °F 41.7 °F 29.90 in Calm   4.0 mph 31% 0.00 in 863.00 W/m2
11:00 74.6 °F 42.0 °F 29.89 in Calm   1.0 mph 31% 0.00 in 868.00 W/m2
11:05 74.8 °F 43.0 °F 29.89 in WSW 2.0 mph 4.0 mph 32% 0.00 in 881.00 W/m2
11:10 75.0 °F 43.2 °F 29.89 in Calm   6.0 mph 32% 0.00 in 888.00 W/m2
11:15 75.2 °F 44.9 °F 29.90 in Calm   6.0 mph 34% 0.00 in 896.00 W/m2
11:20 75.4 °F 42.7 °F 29.90 in Calm   5.0 mph 31% 0.00 in 889.00 W/m2
11:25 75.6 °F 41.1 °F 29.89 in Calm   5.0 mph 29% 0.00 in 916.00 W/m2
11:30 75.8 °F 43.0 °F 29.89 in Calm   2.0 mph 31% 0.00 in 919.00 W/m2
11:35 76.1 °F 44.1 °F 29.89 in Calm   3.0 mph 32% 0.00 in 921.00 W/m2
11:40 76.3 °F 45.1 °F 29.89 in Calm   8.0 mph 33% 0.00 in 930.00 W/m2
11:45 76.5 °F 44.5 °F 29.90 in SW 1.0 mph 2.0 mph 32% 0.00 in 935.00 W/m2
11:50 76.8 °F 44.7 °F 29.90 in SW 5.0 mph 5.0 mph 32% 0.00 in 960.00 W/m2
11:55 77.1 °F 45.0 °F 29.90 in Calm   7.0 mph 32% 0.00 in 949.00 W/m2
12:00 77.4 °F 40.8 °F 29.90 in Calm   5.0 mph 27% 0.00 in 951.00 W/m2
12:05 77.6 °F 41.0 °F 29.90 in WSW 2.0 mph 11.0 mph 27% 0.00 in 960.00 W/m2
12:10 78.0 °F 42.3 °F 29.90 in South 7.0 mph 9.0 mph 28% 0.00 in 958.00 W/m2
12:15 78.4 °F 43.5 °F 29.90 in WSW 6.0 mph 10.0 mph 29% 0.00 in 962.00 W/m2
12:20 78.4 °F 42.6 °F 29.90 in SSW 5.0 mph 11.0 mph 28% 0.00 in 962.00 W/m2
12:25 78.8 °F 44.8 °F 29.90 in South 5.0 mph 8.0 mph 30% 0.00 in 962.00 W/m2
12:30 79.2 °F 43.3 °F 29.90 in Calm   6.0 mph 28% 0.00 in 967.00 W/m2
12:35 79.1 °F 44.2 °F 29.90 in Calm   9.0 mph 29% 0.00 in 967.00 W/m2
12:40 79.1 °F 45.0 °F 29.90 in WSW 3.0 mph 6.0 mph 30% 0.00 in 967.00 W/m2
12:45 79.2 °F 44.2 °F 29.90 in Calm   9.0 mph 29% 0.00 in 965.00 W/m2
12:50 79.1 °F 45.9 °F 29.90 in Calm   3.0 mph 31% 0.00 in 972.00 W/m2
12:55 79.2 °F 46.8 °F 29.90 in Calm   5.0 mph 32% 0.00 in 969.00 W/m2
13:05 80.0 °F 48.3 °F 29.90 in South 6.0 mph 10.0 mph 33% 0.00 in 967.00 W/m2
13:10 80.2 °F 46.9 °F 29.90 in WSW 4.0 mph 9.0 mph 31% 0.00 in 967.00 W/m2
13:15 80.0 °F 46.7 °F 29.90 in SSW 4.0 mph 9.0 mph 31% 0.00 in 965.00 W/m2
13:20 80.0 °F 46.7 °F 29.90 in Calm   8.0 mph 31% 0.00 in 965.00 W/m2
13:25 80.1 °F 46.8 °F 29.90 in South 3.0 mph 8.0 mph 31% 0.00 in 962.00 W/m2
13:30 80.4 °F 47.0 °F 29.90 in SSW 10.0 mph 10.0 mph 31% 0.00 in 960.00 W/m2
13:35 80.8 °F 46.5 °F 29.89 in Calm   13.0 mph 30% 0.00 in 956.00 W/m2
13:40 80.9 °F 46.6 °F 29.89 in West 3.0 mph 11.0 mph 30% 0.00 in 954.00 W/m2
13:45 80.8 °F 45.6 °F 29.90 in SW 3.0 mph 12.0 mph 29% 0.00 in 951.00 W/m2
13:50 80.4 °F 46.2 °F 29.90 in SW 4.0 mph 6.0 mph 30% 0.00 in 951.00 W/m2
13:52 80.3 °F 46.1 °F 29.90 in WSW 5.0 mph 9.0 mph 30% 0.00 in 942.00 W/m2
13:57 80.4 °F 46.2 °F 29.90 in SW 6.0 mph 9.0 mph 30% 0.00 in 944.00 W/m2
14:02 80.6 °F 44.5 °F 29.89 in Calm   5.0 mph 28% 0.00 in 937.00 W/m2
14:07 80.3 °F 45.2 °F 29.90 in Calm   9.0 mph 29% 0.00 in 928.00 W/m2
14:12 80.0 °F 46.7 °F 29.90 in WSW 6.0 mph 8.0 mph 31% 0.00 in 926.00 W/m2
14:17 79.9 °F 45.7 °F 29.89 in WSW 2.0 mph 3.0 mph 30% 0.00 in 918.00 W/m2
14:22 80.0 °F 46.7 °F 29.89 in WSW 2.0 mph 3.0 mph 31% 0.00 in 914.00 W/m2
14:27 80.0 °F 46.7 °F 29.89 in Calm   6.0 mph 31% 0.00 in 911.00 W/m2
14:32 80.4 °F 46.2 °F 29.89 in Calm   1.0 mph 30% 0.00 in 904.00 W/m2
14:37 80.5 °F 44.4 °F 29.89 in SSW 2.0 mph 10.0 mph 28% 0.00 in 896.00 W/m2
14:42 80.5 °F 44.4 °F 29.89 in West 5.0 mph 8.0 mph 28% 0.00 in 888.00 W/m2
14:47 80.3 °F 44.3 °F 29.89 in WSW 1.0 mph 3.0 mph 28% 0.00 in 879.00 W/m2
14:52 80.2 °F 43.2 °F 29.89 in Calm   8.0 mph 27% 0.00 in 870.00 W/m2
14:57 80.0 °F 44.9 °F 29.89 in SSW 11.0 mph 11.0 mph 29% 0.00 in 865.00 W/m2
15:02 80.0 °F 43.0 °F 29.89 in South 4.0 mph 11.0 mph 27% 0.00 in 867.00 W/m2
15:07 80.2 °F 41.2 °F 29.89 in SSE 4.0 mph 9.0 mph 25% 0.00 in 849.00 W/m2
15:12 80.4 °F 41.4 °F 29.89 in Calm     25% 0.00 in 837.00 W/m2
15:17 80.5 °F 42.5 °F 29.89 in SSW 3.0 mph 9.0 mph 26% 0.00 in 828.00 W/m2
15:22 80.5 °F 40.4 °F 29.89 in SW 4.0 mph 9.0 mph 24% 0.00 in 817.00 W/m2
15:27 80.5 °F 42.5 °F 29.89 in SW 7.0 mph 8.0 mph 26% 0.00 in 809.00 W/m2
15:32 80.5 °F 40.4 °F 29.89 in SW 7.0 mph 9.0 mph 24% 0.00 in 802.00 W/m2
15:37 80.5 °F 41.5 °F 29.88 in Calm   9.0 mph 25% 0.00 in 789.00 W/m2
15:42 80.5 °F 41.5 °F 29.88 in Calm   8.0 mph 25% 0.00 in 773.00 W/m2
15:47 80.5 °F 43.5 °F 29.88 in WSW 5.0 mph 6.0 mph 27% 0.00 in 766.00 W/m2
15:52 80.6 °F 42.6 °F 29.88 in Calm   6.0 mph 26% 0.00 in 752.00 W/m2
15:57 80.7 °F 41.7 °F 29.88 in West 2.0 mph 7.0 mph 25% 0.00 in 740.00 W/m2
16:02 80.5 °F 42.5 °F 29.88 in Calm   9.0 mph 26% 0.00 in 729.00 W/m2
16:08 80.4 °F 42.4 °F 29.88 in SSW 1.0 mph 7.0 mph 26% 0.00 in 717.00 W/m2
16:13 80.4 °F 42.4 °F 29.87 in Calm   1.0 mph 26% 0.00 in 696.00 W/m2
16:18 80.5 °F 42.5 °F 29.87 in Calm     26% 0.00 in 687.00 W/m2
16:23 80.5 °F 44.4 °F 29.87 in Calm   2.0 mph 28% 0.00 in 670.00 W/m2
16:28 80.5 °F 44.4 °F 29.87 in Calm     28% 0.00 in 656.00 W/m2
16:33 80.5 °F 45.3 °F 29.87 in Calm   1.0 mph 29% 0.00 in 652.00 W/m2
16:38 80.6 °F 43.6 °F 29.87 in Calm   5.0 mph 27% 0.00 in 628.00 W/m2
16:43 80.5 °F 41.5 °F 29.87 in Calm     25% 0.00 in 612.00 W/m2
16:48 80.4 °F 42.4 °F 29.87 in Calm   8.0 mph 26% 0.00 in 603.00 W/m2
16:53 80.3 °F 43.3 °F 29.87 in Calm   6.0 mph 27% 0.00 in 589.00 W/m2
16:58 80.3 °F 43.3 °F 29.87 in Calm   4.0 mph 27% 0.00 in 570.00 W/m2
17:03 80.2 °F 44.2 °F 29.87 in South 4.0 mph 7.0 mph 28% 0.00 in 559.00 W/m2
17:08 80.1 °F 45.0 °F 29.87 in Calm     29% 0.00 in 545.00 W/m2
17:13 80.1 °F 44.1 °F 29.87 in SSW 3.0 mph 4.0 mph 28% 0.00 in 526.00 W/m2
17:18 80.1 °F 44.1 °F 29.87 in WSW 2.0 mph 2.0 mph 28% 0.00 in 513.00 W/m2
17:23 80.0 °F 43.0 °F 29.87 in Calm   7.0 mph 27% 0.00 in 497.00 W/m2
17:28 80.0 °F 44.0 °F 29.86 in WSW 6.0 mph 7.0 mph 28% 0.00 in 480.00 W/m2
17:33 80.0 °F 44.9 °F 29.86 in Calm   6.0 mph 29% 0.00 in 461.00 W/m2
17:38 79.9 °F 43.9 °F 29.86 in Calm   5.0 mph 28% 0.00 in 450.00 W/m2
17:43 79.8 °F 44.8 °F 29.86 in SW 1.0 mph 4.0 mph 29% 0.00 in 438.00 W/m2
17:48 79.8 °F 43.8 °F 29.86 in SW 2.0 mph 9.0 mph 28% 0.00 in 420.00 W/m2
17:53 79.7 °F 44.7 °F 29.86 in Calm   4.0 mph 29% 0.00 in 406.00 W/m2
17:58 79.6 °F 42.7 °F 29.86 in Calm   7.0 mph 27% 0.00 in 388.00 W/m2
18:03 79.4 °F 43.5 °F 29.86 in Calm     28% 0.00 in 357.00 W/m2
18:08 79.3 °F 44.3 °F 29.86 in Calm     29% 0.00 in 332.00 W/m2
18:13 79.2 °F 45.1 °F 29.86 in Calm   4.0 mph 30% 0.00 in 318.00 W/m2
18:18 79.1 °F 45.9 °F 29.86 in SW 3.0 mph 3.0 mph 31% 0.00 in 316.00 W/m2
18:23 78.9 °F 45.7 °F 29.86 in Calm   4.0 mph 31% 0.00 in 267.00 W/m2
18:28 78.7 °F 45.6 °F 29.86 in Calm   3.0 mph 31% 0.00 in 278.00 W/m2
18:33 78.6 °F 44.6 °F 29.86 in Calm   4.0 mph 30% 0.00 in 278.00 W/m2
18:38 78.4 °F 45.3 °F 29.86 in Calm   1.0 mph 31% 0.00 in 262.00 W/m2
18:43 78.2 °F 45.1 °F 29.86 in Calm   5.0 mph 31% 0.00 in 237.00 W/m2
18:48 78.0 °F 47.4 °F 29.86 in Calm   2.0 mph 34% 0.00 in 213.00 W/m2
18:53 77.8 °F 47.2 °F 29.86 in Calm   2.0 mph 34% 0.00 in 139.00 W/m2
18:58 77.6 °F 47.8 °F 29.86 in Calm   2.0 mph 35% 0.00 in 120.00 W/m2
19:03 77.2 °F 48.9 °F 29.86 in Calm     37% 0.00 in 125.00 W/m2
19:08 76.9 °F 48.7 °F 29.86 in Calm     37% 0.00 in 65.00 W/m2
19:14 76.5 °F 48.3 °F 29.87 in Calm   5.0 mph 37% 0.00 in 95.00 W/m2
19:19 76.1 °F 48.7 °F 29.86 in Calm   1.0 mph 38% 0.00 in 70.00 W/m2
19:24 75.6 °F 48.9 °F 29.86 in Calm   1.0 mph 39% 0.00 in 54.00 W/m2
19:29 74.9 °F 49.0 °F 29.86 in Calm   1.0 mph 40% 0.00 in 63.00 W/m2
19:34 74.4 °F 49.2 °F 29.87 in Calm     41% 0.00 in 33.00 W/m2
19:39 73.8 °F 48.7 °F 29.87 in Calm   1.0 mph 41% 0.00 in 49.00 W/m2
19:44 73.2 °F 47.5 °F 29.87 in Calm     40% 0.00 in 44.00 W/m2
19:49 72.7 °F 48.3 °F 29.87 in Calm     42% 0.00 in 32.00 W/m2
19:54 72.2 °F 47.9 °F 29.87 in Calm     42% 0.00 in 28.00 W/m2
19:59 71.7 °F 48.0 °F 29.86 in Calm     43% 0.00 in 23.00 W/m2
20:04 71.3 °F 47.0 °F 29.87 in Calm     42% 0.00 in 19.00 W/m2
20:09 71.1 °F 48.1 °F 29.87 in Calm     44% 0.00 in 16.00 W/m2
20:14 70.8 °F 47.2 °F 29.87 in Calm     43% 0.00 in 12.00 W/m2
20:19 70.5 °F 47.0 °F 29.87 in Calm     43% 0.00 in 9.00 W/m2
20:24 70.3 °F 46.2 °F 29.86 in Calm     42% 0.00 in 5.00 W/m2
20:29 70.0 °F 45.2 °F 29.86 in Calm     41% 0.00 in 0.00 W/m2
20:34 69.6 °F 45.5 °F 29.86 in Calm     42% 0.00 in 0.00 W/m2
20:39 69.2 °F 45.8 °F 29.86 in Calm     43% 0.00 in 0.00 W/m2
20:44 68.8 °F 44.8 °F 29.86 in Calm   1.0 mph 42% 0.00 in 0.00 W/m2
20:49 68.3 °F 43.7 °F 29.86 in Calm     41% 0.00 in 0.00 W/m2
20:54 67.9 °F 44.0 °F 29.86 in Calm     42% 0.00 in 0.00 W/m2
20:59 67.6 °F 43.1 °F 29.86 in Calm     41% 0.00 in 0.00 W/m2
21:04 67.3 °F 42.8 °F 29.86 in Calm     41% 0.00 in 0.00 W/m2
21:09 67.0 °F 42.5 °F 29.86 in Calm     41% 0.00 in 0.00 W/m2
21:12 66.9 °F 43.1 °F 29.87 in Calm     42% 0.00 in 0.00 W/m2
21:17 66.7 °F 42.9 °F 29.87 in WSW 1.0 mph 2.0 mph 42% 0.00 in 0.00 W/m2
21:22 66.6 °F 43.4 °F 29.86 in Calm   4.0 mph 43% 0.00 in 0.00 W/m2
21:23 66.5 °F 43.3 °F 29.87 in Calm   4.0 mph 43% 0.00 in 0.00 W/m2
21:28 66.5 °F 43.3 °F 29.87 in SSW 2.0 mph 4.0 mph 43% 0.00 in 0.00 W/m2
21:33 66.4 °F 43.8 °F 29.87 in Calm   6.0 mph 44% 0.00 in 0.00 W/m2
21:38 66.3 °F 44.3 °F 29.87 in Calm   6.0 mph 45% 0.00 in 0.00 W/m2
21:43 66.2 °F 43.7 °F 29.87 in SE 4.0 mph 6.0 mph 44% 0.00 in 0.00 W/m2
21:48 66.2 °F 44.2 °F 29.87 in Calm   4.0 mph 45% 0.00 in 0.00 W/m2
21:53 66.2 °F 44.2 °F 29.87 in SE 2.0 mph 7.0 mph 45% 0.00 in 0.00 W/m2
21:58 66.1 °F 44.2 °F 29.87 in ESE 6.0 mph 7.0 mph 45% 0.00 in 0.00 W/m2
22:03 66.1 °F 44.7 °F 29.87 in Calm   5.0 mph 46% 0.00 in 0.00 W/m2
22:08 66.1 °F 44.7 °F 29.87 in Calm   5.0 mph 46% 0.00 in 0.00 W/m2
22:13 66.1 °F 44.7 °F 29.87 in Calm   6.0 mph 46% 0.00 in 0.00 W/m2
22:18 66.2 °F 44.8 °F 29.87 in ESE 7.0 mph 8.0 mph 46% 0.00 in 0.00 W/m2
22:23 66.2 °F 44.8 °F 29.87 in ESE 1.0 mph 4.0 mph 46% 0.00 in 0.00 W/m2
22:28 66.2 °F 44.8 °F 29.87 in Calm   5.0 mph 46% 0.00 in 0.00 W/m2
22:33 66.2 °F 44.8 °F 29.87 in ESE 4.0 mph 5.0 mph 46% 0.00 in 0.00 W/m2
22:38 66.3 °F 44.9 °F 29.87 in Calm   5.0 mph 46% 0.00 in 0.00 W/m2
22:43 66.3 °F 44.9 °F 29.87 in ESE 2.0 mph 8.0 mph 46% 0.00 in 0.00 W/m2
22:48 66.3 °F 44.3 °F 29.87 in ESE 2.0 mph 7.0 mph 45% 0.00 in 0.00 W/m2
22:53 66.3 °F 44.9 °F 29.86 in ESE 4.0 mph 6.0 mph 46% 0.00 in 0.00 W/m2
22:58 66.3 °F 45.5 °F 29.86 in ESE 1.0 mph 6.0 mph 47% 0.00 in 0.00 W/m2
23:03 66.2 °F 45.4 °F 29.86 in ESE 7.0 mph 7.0 mph 47% 0.00 in 0.00 W/m2
23:08 66.2 °F 45.4 °F 29.86 in Calm   8.0 mph 47% 0.00 in 0.00 W/m2
23:13 66.1 °F 45.3 °F 29.86 in Calm   7.0 mph 47% 0.00 in 0.00 W/m2
23:18 66.0 °F 44.7 °F 29.86 in ESE 2.0 mph 8.0 mph 46% 0.00 in 0.00 W/m2
23:23 65.9 °F 45.1 °F 29.86 in Calm   9.0 mph 47% 0.00 in 0.00 W/m2
23:28 65.7 °F 44.9 °F 29.86 in ESE 4.0 mph 9.0 mph 47% 0.00 in 0.00 W/m2
23:33 65.6 °F 44.3 °F 29.86 in East 1.0 mph 12.0 mph 46% 0.00 in 0.00 W/m2
23:38 65.5 °F 44.8 °F 29.86 in ESE 8.0 mph 15.0 mph 47% 0.00 in 0.00 W/m2
23:43 65.3 °F 44.6 °F 29.86 in Calm   9.0 mph 47% 0.00 in 0.00 W/m2
23:48 65.3 °F 44.6 °F 29.86 in ESE 1.0 mph 15.0 mph 47% 0.00 in 0.00 W/m2
23:53 65.2 °F 44.5 °F 29.86 in ESE 4.0 mph 13.0 mph 47% 0.00 in 0.00 W/m2
23:58 65.1 °F 44.4 °F 29.86 in ESE 8.0 mph 12.0 mph 47% 0.00 in 0.00 W/m2
Foresthill Weather
 WU-history PHP script courtesy of   Juneau County Weather.
powered by Cumulus v1.9.3 (1059)
Ambient Weather VWS v14.00
Top Contact Website Map Copyright © 2007 - 2018 Foresthillweather.com Never base important decisions on this or any weather information obtained from the Internet